createdAt,value
2018-07-06T00:01:53.220Z,98002.78
2018-07-06T00:04:39.701Z,98009.05
2018-07-06T00:07:26.112Z,98000.74
2018-07-06T00:10:12.509Z,97999.74
2018-07-06T00:12:58.964Z,97997.98
2018-07-06T00:15:45.179Z,97993.97
2018-07-06T00:18:31.609Z,97993.13
2018-07-06T00:21:18.163Z,97995.66
2018-07-06T00:23:58.371Z,98000.44
2018-07-06T00:26:44.814Z,97993.62
2018-07-06T00:29:25.132Z,97993.06
2018-07-06T00:32:11.419Z,97996.25
2018-07-06T00:34:57.817Z,97999.74
2018-07-06T00:37:44.316Z,98002.86
2018-07-06T00:40:30.729Z,98005.56
2018-07-06T00:43:17.139Z,98005.77
2018-07-06T00:46:03.557Z,98008.81
2018-07-06T00:48:49.951Z,98013.42
2018-07-06T00:51:36.448Z,98019.24
2018-07-06T00:54:22.936Z,98024.57
2018-07-06T00:57:09.284Z,98046.93
2018-07-06T00:59:49.662Z,98042.59
2018-07-06T01:02:36.080Z,98048.26
2018-07-06T01:05:22.449Z,98051.91
2018-07-06T01:08:02.717Z,98053.80
2018-07-06T01:10:49.132Z,98052.58
2018-07-06T01:13:35.435Z,98053.25
2018-07-06T01:16:21.715Z,98044.74
2018-07-06T01:19:08.044Z,98055.72
2018-07-06T01:21:54.452Z,98057.59
2018-07-06T01:24:40.804Z,98051.34
2018-07-06T01:27:27.265Z,98058.97
2018-07-06T01:30:14.119Z,98056.76
2018-07-06T01:32:54.517Z,98064.95
2018-07-06T01:35:40.893Z,98065.27
2018-07-06T01:38:27.096Z,98065.18
2018-07-06T01:41:13.427Z,98070.69
2018-07-06T01:43:59.977Z,98064.16
2018-07-06T01:46:46.430Z,98060.77
2018-07-06T01:49:32.831Z,98059.84
2018-07-06T01:52:19.212Z,98058.50
2018-07-06T01:55:05.635Z,98060.67
2018-07-06T01:57:52.019Z,98053.30
2018-07-06T02:00:38.544Z,98055.55
2018-07-06T02:03:25.073Z,98053.91
2018-07-06T02:06:11.448Z,98059.44
2018-07-06T02:08:57.844Z,98056.88
2018-07-06T02:11:44.285Z,98058.25
2018-07-06T02:14:30.760Z,98057.72
2018-07-06T02:17:17.505Z,98054.86
2018-07-06T02:20:03.885Z,98048.67
2018-07-06T02:22:50.116Z,98053.41
2018-07-06T02:25:36.548Z,98052.06
2018-07-06T02:28:23.078Z,98048.05
2018-07-06T02:31:09.504Z,98047.78
2018-07-06T02:33:55.942Z,98046.83
2018-07-06T02:36:42.359Z,98044.84
2018-07-06T02:39:28.740Z,98048.02
2018-07-06T02:42:15.213Z,98049.03
2018-07-06T02:45:01.699Z,98050.77
2018-07-06T02:47:48.291Z,98055.08
2018-07-06T02:50:34.557Z,98059.30
2018-07-06T02:53:20.991Z,98055.99
2018-07-06T02:56:07.473Z,98057.81
2018-07-06T02:58:53.885Z,98057.48
2018-07-06T03:01:40.413Z,98060.93
2018-07-06T03:04:26.897Z,98059.09
2018-07-06T03:07:13.306Z,98055.70
2018-07-06T03:09:59.575Z,98058.90
2018-07-06T03:12:45.984Z,98063.30
2018-07-06T03:15:32.137Z,98069.97
2018-07-06T03:18:12.331Z,98064.13
2018-07-06T03:20:58.703Z,98068.08
2018-07-06T03:23:45.184Z,98068.05
2018-07-06T03:26:31.520Z,98068.86
2018-07-06T03:29:18.197Z,98075.02
2018-07-06T03:31:58.349Z,98072.44
2018-07-06T03:34:44.808Z,98078.47
2018-07-06T03:37:31.259Z,98078.45
2018-07-06T03:40:11.743Z,98074.42
2018-07-06T03:42:58.264Z,98081.39
2018-07-06T03:45:44.719Z,98082.42
2018-07-06T03:48:27.856Z,98090.52
2018-07-06T03:51:14.265Z,98087.95
2018-07-06T03:54:00.680Z,98087.06
2018-07-06T03:56:47.199Z,98089.17
2018-07-06T03:59:33.588Z,98085.87
2018-07-06T04:02:19.899Z,98084.59
2018-07-06T04:05:06.296Z,98091.06
2018-07-06T04:07:52.955Z,98086.59
2018-07-06T04:10:33.261Z,98094.56
2018-07-06T04:13:19.664Z,98095.45
2018-07-06T04:16:05.938Z,98097.63
2018-07-06T04:18:56.573Z,98101.55
2018-07-06T04:21:43.074Z,98095.63
2018-07-06T04:24:30.133Z,98100.83
2018-07-06T04:27:11.424Z,98105.86
2018-07-06T04:29:57.724Z,98115.17
2018-07-06T04:32:44.041Z,98120.73
2018-07-06T04:35:30.391Z,98121.03
2018-07-06T04:38:16.771Z,98121.28
2018-07-06T04:41:03.260Z,98120.86
2018-07-06T04:43:49.708Z,98119.47
2018-07-06T04:46:36.151Z,98126.70
2018-07-06T04:49:22.723Z,98128.98
2018-07-06T04:52:09.007Z,98128.88
2018-07-06T04:54:55.476Z,98125.17
2018-07-06T04:57:41.979Z,98123.56
2018-07-06T05:00:28.396Z,98128.59
2018-07-06T05:03:15.034Z,98120.95
2018-07-06T05:05:55.288Z,98129.73
2018-07-06T05:08:41.605Z,98133.07
2018-07-06T05:11:27.773Z,98140.05
2018-07-06T05:14:14.113Z,98134.68
2018-07-06T05:17:00.645Z,98142.52
2018-07-06T05:19:47.084Z,98145.97
2018-07-06T05:22:27.406Z,98146.12
2018-07-06T05:25:13.903Z,98149.88
2018-07-06T05:28:00.425Z,98148.16
2018-07-06T05:30:46.900Z,98150.31
2018-07-06T05:33:33.400Z,98155.58
2018-07-06T05:36:19.902Z,98155.58
2018-07-06T05:39:06.759Z,98150.09
2018-07-06T05:41:53.219Z,98152.18
2018-07-06T05:44:39.759Z,98158.49
2018-07-06T05:47:26.181Z,98157.98
2018-07-06T05:50:12.786Z,98159.14
2018-07-06T05:52:53.075Z,98159.86
2018-07-06T05:55:39.489Z,98166.89
2018-07-06T05:58:26.003Z,98166.70
2018-07-06T06:01:12.499Z,98169.16
2018-07-06T06:03:58.905Z,98175.48
2018-07-06T06:06:45.234Z,98176.92
2018-07-06T06:09:14.676Z,98180.70
2018-07-06T06:11:43.811Z,98176.36
2018-07-06T06:14:12.940Z,98177.31
2018-07-06T06:16:41.858Z,98179.83
2018-07-06T06:19:11.010Z,98189.44
2018-07-06T06:21:40.111Z,98180.27
2018-07-06T06:24:09.239Z,98187.28
2018-07-06T06:26:38.381Z,98188.56
2018-07-06T06:29:07.519Z,98189.63
2018-07-06T06:31:36.414Z,98191.71
2018-07-06T06:34:05.549Z,98192.09
2018-07-06T06:36:34.677Z,98193.34
2018-07-06T06:39:09.327Z,98196.98
2018-07-06T06:41:39.226Z,98190.71
2018-07-06T06:44:08.708Z,98197.53
2018-07-06T06:46:38.167Z,98198.12
2018-07-06T06:49:07.608Z,98202.45
2018-07-06T06:51:37.095Z,98201.98
2018-07-06T06:54:06.538Z,98203.81
2018-07-06T06:56:35.960Z,98212.33
2018-07-06T06:59:05.454Z,98212.88
2018-07-06T07:01:34.945Z,98214.02
2018-07-06T07:04:04.393Z,98211.63
2018-07-06T07:06:33.962Z,98209.87
2018-07-06T07:09:04.589Z,98209.19
2018-07-06T07:11:34.304Z,98208.01
2018-07-06T07:14:03.896Z,98216.05
2018-07-06T07:16:33.560Z,98214.13
2018-07-06T07:19:03.203Z,98208.80
2018-07-06T07:21:32.665Z,98207.53
2018-07-06T07:24:02.133Z,98208.55
2018-07-06T07:26:31.593Z,98211.41
2018-07-06T07:29:01.306Z,98208.23
2018-07-06T07:31:30.693Z,98209.87
2018-07-06T07:34:00.228Z,98212.39
2018-07-06T07:36:29.694Z,98209.97
2018-07-06T07:38:59.217Z,98205.29
2018-07-06T07:41:28.853Z,98211.61
2018-07-06T07:43:58.394Z,98211.34
2018-07-06T07:46:27.959Z,98210.67
2018-07-06T07:48:57.402Z,98202.35
2018-07-06T07:52:11.175Z,98216.79
2018-07-06T07:54:47.732Z,98214.35
2018-07-06T07:57:17.248Z,98217.71
2018-07-06T07:59:47.127Z,98219.72
2018-07-06T08:02:16.976Z,98216.81
2018-07-06T08:04:47.894Z,98221.38
2018-07-06T08:07:17.443Z,98220.64
2018-07-06T08:09:47.034Z,98223.40
2018-07-06T08:12:16.484Z,98224.19
2018-07-06T08:14:46.046Z,98221.08
2018-07-06T08:17:15.520Z,98222.31
2018-07-06T08:19:45.170Z,98226.45
2018-07-06T08:22:14.685Z,98230.19
2018-07-06T08:24:44.177Z,98234.17
2018-07-06T08:27:13.638Z,98241.44
2018-07-06T08:29:43.158Z,98233.40
2018-07-06T08:32:12.661Z,98247.47
2018-07-06T08:34:59.010Z,98246.72
2018-07-06T08:37:50.796Z,98245.75
2018-07-06T08:40:21.246Z,98247.69
2018-07-06T08:42:51.940Z,98251.55
2018-07-06T08:45:21.448Z,98253.17
2018-07-06T08:47:51.157Z,98254.97
2018-07-06T08:50:20.599Z,98253.96
2018-07-06T08:52:50.867Z,98261.98
2018-07-06T08:55:20.442Z,98260.23
2018-07-06T08:57:51.142Z,98258.63
2018-07-06T09:00:20.401Z,98254.73
2018-07-06T09:02:49.772Z,98258.80
2018-07-06T09:05:19.037Z,98261.64
2018-07-06T09:07:48.347Z,98269.52
2018-07-06T09:10:17.629Z,98269.53
2018-07-06T09:12:46.897Z,98277.63
2018-07-06T09:15:16.191Z,98273.38
2018-07-06T09:17:45.438Z,98283.11
2018-07-06T09:20:14.769Z,98277.82
2018-07-06T09:22:43.869Z,98284.07
2018-07-06T09:25:13.040Z,98282.05
2018-07-06T09:27:42.187Z,98283.78
2018-07-06T09:30:11.325Z,98281.03
2018-07-06T09:32:40.487Z,98277.02
2018-07-06T09:35:09.639Z,98279.50
2018-07-06T09:37:40.246Z,98291.59
2018-07-06T09:40:10.148Z,98293.27
2018-07-06T09:42:39.517Z,98286.77
2018-07-06T09:45:08.955Z,98288.56
2018-07-06T09:47:38.214Z,98287.91
2018-07-06T09:50:07.468Z,98295.56
2018-07-06T09:52:36.736Z,98291.22
2018-07-06T09:55:05.929Z,98291.41
2018-07-06T09:57:35.073Z,98298.78
2018-07-06T10:00:04.644Z,98304.48
2018-07-06T10:02:33.822Z,98299.83
2018-07-06T10:05:02.973Z,98298.45
2018-07-06T10:07:32.116Z,98300.44
2018-07-06T10:10:01.287Z,98293.48
2018-07-06T10:12:30.466Z,98290.83
2018-07-06T10:14:59.609Z,98292.70
2018-07-06T10:17:28.524Z,98291.31
2018-07-06T10:19:57.682Z,98290.17
2018-07-06T10:22:26.821Z,98289.41
2018-07-06T10:24:55.995Z,98287.40
2018-07-06T10:27:36.457Z,98288.16
2018-07-06T10:31:18.836Z,98293.92
2018-07-06T10:33:48.028Z,98291.89
2018-07-06T10:36:17.134Z,98289.16
2018-07-06T10:38:46.325Z,98296.84
2018-07-06T10:41:15.486Z,98301.23
2018-07-06T10:43:45.606Z,98294.26
2018-07-06T10:46:15.019Z,98291.06
2018-07-06T10:48:44.452Z,98295.23
2018-07-06T10:51:13.868Z,98291.27
2018-07-06T10:53:43.229Z,98292.52
2018-07-06T10:56:12.593Z,98295.45
2018-07-06T10:58:41.668Z,98294.91
2018-07-06T11:01:11.120Z,98294.31
2018-07-06T11:03:40.808Z,98285.45
2018-07-06T11:06:10.229Z,98287.09
2018-07-06T11:08:39.554Z,98294.26
2018-07-06T11:11:08.955Z,98286.66
2018-07-06T11:13:38.229Z,98289.88
2018-07-06T11:16:07.609Z,98277.39
2018-07-06T11:18:36.633Z,98279.98
2018-07-06T11:21:05.973Z,98287.99
2018-07-06T11:23:35.262Z,98290.16
2018-07-06T11:26:04.707Z,98279.18
2018-07-06T11:28:33.736Z,98285.92
2018-07-06T11:31:03.075Z,98279.23
2018-07-06T11:33:32.405Z,98286.20
2018-07-06T11:36:01.651Z,98285.89
2018-07-06T11:38:30.942Z,98283.79
2018-07-06T11:41:00.295Z,98282.27
2018-07-06T11:43:29.667Z,98279.28
2018-07-06T11:45:58.919Z,98283.17
2018-07-06T11:48:28.143Z,98282.54
2018-07-06T11:50:57.349Z,98277.91
2018-07-06T11:53:27.115Z,98275.66
2018-07-06T11:55:56.447Z,98277.03
2018-07-06T11:58:25.914Z,98282.85
2018-07-06T12:00:55.060Z,98271.45
2018-07-06T12:03:24.208Z,98272.22
2018-07-06T12:05:53.351Z,98272.91
2018-07-06T12:08:22.491Z,98275.42
2018-07-06T12:10:51.631Z,98282.02
2018-07-06T12:13:21.512Z,98275.24
2018-07-06T12:15:51.526Z,98276.32
2018-07-06T12:18:20.728Z,98277.63
2018-07-06T12:20:49.876Z,98274.30
2018-07-06T12:23:18.778Z,98258.15
2018-07-06T12:25:47.936Z,98258.88
2018-07-06T12:28:17.086Z,98259.98
2018-07-06T12:30:46.231Z,98251.60
2018-07-06T12:33:15.357Z,98254.61
2018-07-06T12:35:44.497Z,98246.63
2018-07-06T12:38:13.645Z,98235.94
2018-07-06T12:40:42.821Z,98246.59
2018-07-06T12:43:11.953Z,98242.81
2018-07-06T12:45:41.108Z,98242.98
2018-07-06T12:48:10.254Z,98247.91
2018-07-06T12:50:39.457Z,98243.54
2018-07-06T12:53:08.597Z,98242.22
2018-07-06T12:55:37.753Z,98237.97
2018-07-06T12:58:07.437Z,98233.88
2018-07-06T13:00:36.295Z,98226.36
2018-07-06T13:03:05.453Z,98225.26
2018-07-06T13:05:34.597Z,98236.77
2018-07-06T13:08:03.725Z,98231.19
2018-07-06T13:10:32.905Z,98227.83
2018-07-06T13:13:02.029Z,98228.52
2018-07-06T13:15:31.163Z,98229.91
2018-07-06T13:18:00.369Z,98218.72
2018-07-06T13:20:29.508Z,98252.11
2018-07-06T13:22:58.646Z,98246.70
2018-07-06T13:25:27.776Z,98250.41
2018-07-06T13:27:56.945Z,98247.47
2018-07-06T13:30:26.072Z,98263.70
2018-07-06T13:32:55.229Z,98262.00
2018-07-06T13:35:24.364Z,98251.81
2018-07-06T13:37:53.519Z,98241.68
2018-07-06T13:40:22.662Z,98247.87
2018-07-06T13:42:51.830Z,98242.20
2018-07-06T13:45:20.973Z,98245.05
2018-07-06T13:47:50.112Z,98246.51
2018-07-06T13:50:19.250Z,98241.05
2018-07-06T13:52:48.402Z,98254.99
2018-07-06T13:55:17.541Z,98256.45
2018-07-06T13:57:46.703Z,98244.25
2018-07-06T14:00:15.838Z,98251.09
2018-07-06T14:02:44.971Z,98242.91
2018-07-06T14:05:14.113Z,98239.75
2018-07-06T14:07:43.260Z,98238.16
2018-07-06T14:10:12.375Z,98253.95
2018-07-06T14:12:41.508Z,98238.94
2018-07-06T14:15:10.937Z,98234.13
2018-07-06T14:17:40.067Z,98232.69
2018-07-06T14:20:09.197Z,98242.78
2018-07-06T14:22:38.380Z,98235.74
2018-07-06T14:25:07.244Z,98242.27
2018-07-06T14:27:36.384Z,98250.32
2018-07-06T14:30:05.645Z,98248.05
2018-07-06T14:32:34.790Z,98249.08
2018-07-06T14:35:03.998Z,98240.89
2018-07-06T14:37:36.266Z,98242.09
2018-07-06T14:40:05.417Z,98241.39
2018-07-06T14:42:34.572Z,98230.28
2018-07-06T14:45:03.704Z,98239.98
2018-07-06T14:47:32.850Z,98244.86
2018-07-06T14:50:01.998Z,98241.09
2018-07-06T14:52:31.137Z,98231.20
2018-07-06T14:55:00.269Z,98241.25
2018-07-06T14:57:29.392Z,98248.06
2018-07-06T14:59:58.540Z,98254.84
2018-07-06T15:02:27.657Z,98251.70
2018-07-06T15:04:56.567Z,98259.86
2018-07-06T15:07:25.695Z,98259.77
2018-07-06T15:09:54.833Z,98257.58
2018-07-06T15:12:24.001Z,98265.89
2018-07-06T15:14:53.138Z,98263.54
2018-07-06T15:17:22.317Z,98265.28
2018-07-06T15:19:51.236Z,98259.75
2018-07-06T15:22:20.360Z,98260.94
2018-07-06T15:24:49.515Z,98270.09
2018-07-06T15:27:18.656Z,98268.21
2018-07-06T15:29:47.802Z,98262.77
2018-07-06T15:32:16.944Z,98264.48
2018-07-06T15:34:46.072Z,98257.84
2018-07-06T15:37:15.266Z,98255.94
2018-07-06T15:39:44.408Z,98253.25
2018-07-06T15:42:13.533Z,98249.71
2018-07-06T15:44:42.667Z,98247.14
2018-07-06T15:47:11.789Z,98250.71
2018-07-06T15:49:40.964Z,98248.14
2018-07-06T15:52:10.056Z,98244.27
2018-07-06T15:54:38.963Z,98244.92
2018-07-06T15:57:08.104Z,98238.16
2018-07-06T15:59:37.237Z,98238.58
2018-07-06T16:02:06.412Z,98244.02
2018-07-06T16:04:36.558Z,98241.00
2018-07-06T16:07:05.681Z,98248.70
2018-07-06T16:09:34.826Z,98240.04
2018-07-06T16:12:03.989Z,98235.91
2018-07-06T16:14:40.928Z,98233.89
2018-07-06T16:17:09.841Z,98233.41
2018-07-06T16:19:38.991Z,98227.95
2018-07-06T16:24:25.072Z,98234.20
2018-07-06T16:26:54.291Z,98232.75
2018-07-06T16:29:23.421Z,98226.88
2018-07-06T16:31:52.632Z,98237.30
2018-07-06T16:34:21.697Z,98243.11
2018-07-06T16:36:50.842Z,98237.45
2018-07-06T16:39:19.985Z,98241.94
2018-07-06T16:41:49.421Z,98236.28
2018-07-06T16:44:18.556Z,98239.84
2018-07-06T16:46:47.797Z,98239.11
2018-07-06T16:49:16.929Z,98242.06
2018-07-06T16:51:46.081Z,98260.69
2018-07-06T16:54:15.211Z,98255.59
2018-07-06T16:56:44.377Z,98259.70
2018-07-06T16:59:13.517Z,98263.30
2018-07-06T17:01:42.666Z,98266.47
2018-07-06T17:04:11.797Z,98260.82
2018-07-06T17:06:40.986Z,98269.37
2018-07-06T17:09:10.080Z,98274.04
2018-07-06T17:11:39.239Z,98269.01
2018-07-06T17:14:08.377Z,98276.80
2018-07-06T17:16:37.512Z,98273.52
2018-07-06T17:19:06.637Z,98280.19
2018-07-06T17:21:37.962Z,98284.17
2018-07-06T17:24:07.207Z,98299.67
2018-07-06T17:26:36.348Z,98301.15
2018-07-06T17:29:05.509Z,98303.88
2018-07-06T17:31:34.710Z,98313.36
2018-07-06T17:34:03.790Z,98314.05
2018-07-06T17:36:32.712Z,98311.42
2018-07-06T17:39:01.870Z,98315.28
2018-07-06T17:41:30.797Z,98320.18
2018-07-06T17:43:59.937Z,98315.69
2018-07-06T17:46:29.088Z,98332.47
2018-07-06T17:48:58.233Z,98321.66
2018-07-06T17:51:27.398Z,98333.91
2018-07-06T17:53:56.549Z,98325.30
2018-07-06T17:56:25.784Z,98326.41
2018-07-06T17:58:54.878Z,98333.25
2018-07-06T18:01:24.003Z,98347.15
2018-07-06T18:03:53.137Z,98334.63
2018-07-06T18:06:22.285Z,98346.02
2018-07-06T18:08:51.436Z,98345.55
2018-07-06T18:11:20.573Z,98350.87
2018-07-06T18:13:49.717Z,98354.73
2018-07-06T18:16:18.837Z,98356.59
2018-07-06T18:18:47.979Z,98351.77
2018-07-06T18:21:17.445Z,98363.30
2018-07-06T18:23:46.580Z,98356.55
2018-07-06T18:26:15.707Z,98358.72
2018-07-06T18:28:44.869Z,98365.80
2018-07-06T18:31:13.992Z,98364.66
2018-07-06T18:33:42.928Z,98368.26
2018-07-06T18:36:12.072Z,98373.11
2018-07-06T18:38:40.967Z,98373.58
2018-07-06T18:41:10.117Z,98381.52
2018-07-06T18:43:39.255Z,98381.97
2018-07-06T18:46:08.417Z,98382.47
2018-07-06T18:48:37.555Z,98387.98
2018-07-06T18:51:07.060Z,98387.61
2018-07-06T18:53:36.177Z,98391.09
2018-07-06T18:56:05.381Z,98388.24
2018-07-06T18:58:34.509Z,98393.17
2018-07-06T19:01:03.646Z,98395.89
2018-07-06T19:03:32.802Z,98396.28
2018-07-06T19:06:01.930Z,98393.16
2018-07-06T19:08:31.077Z,98392.83
2018-07-06T19:11:00.202Z,98405.69
2018-07-06T19:13:29.323Z,98407.06
2018-07-06T19:15:58.468Z,98410.42
2018-07-06T19:18:27.604Z,98408.25
2018-07-06T19:20:56.795Z,98415.14
2018-07-06T19:23:25.967Z,98418.63
2018-07-06T19:25:54.901Z,98418.77
2018-07-06T19:28:23.808Z,98418.25
2018-07-06T19:30:52.945Z,98430.47
2018-07-06T19:33:22.075Z,98430.84
2018-07-06T19:35:51.235Z,98434.30
2018-07-06T19:38:20.344Z,98435.47
2018-07-06T19:40:49.493Z,98444.97
2018-07-06T19:43:18.638Z,98452.95
2018-07-06T19:45:47.773Z,98458.00
2018-07-06T19:48:16.895Z,98458.22
2018-07-06T19:50:46.024Z,98462.09
2018-07-06T19:53:15.159Z,98463.55
2018-07-06T19:55:44.301Z,98465.48
2018-07-06T19:58:13.448Z,98461.97
2018-07-06T20:00:42.573Z,98470.19
2018-07-06T20:03:11.709Z,98478.53
2018-07-06T20:05:40.899Z,98479.22
2018-07-06T20:08:10.016Z,98483.24
2018-07-06T20:10:39.149Z,98478.27
2018-07-06T20:13:08.325Z,98480.61
2018-07-06T20:15:37.241Z,98485.81
2018-07-06T20:18:06.397Z,98488.56
2018-07-06T20:20:35.503Z,98489.21
2018-07-06T20:23:04.640Z,98492.45
2018-07-06T20:25:33.772Z,98494.81
2018-07-06T20:28:02.908Z,98493.19
2018-07-06T20:30:32.050Z,98497.72
2018-07-06T20:33:01.189Z,98496.24
2018-07-06T20:35:30.316Z,98503.46
2018-07-06T20:37:59.443Z,98506.66
2018-07-06T20:40:28.577Z,98511.70
2018-07-06T20:42:57.713Z,98513.20
2018-07-06T20:45:26.853Z,98516.77
2018-07-06T20:47:55.992Z,98521.27
2018-07-06T20:50:25.113Z,98517.41
2018-07-06T20:52:54.248Z,98523.84
2018-07-06T20:55:23.387Z,98516.97
2018-07-06T20:57:52.520Z,98529.35
2018-07-06T21:00:21.654Z,98532.85
2018-07-06T21:02:50.793Z,98533.69
2018-07-06T21:05:19.916Z,98536.88
2018-07-06T21:07:49.053Z,98536.08
2018-07-06T21:10:18.183Z,98539.31
2018-07-06T21:12:47.298Z,98536.61
2018-07-06T21:15:16.437Z,98542.34
2018-07-06T21:17:45.559Z,98542.68
2018-07-06T21:20:14.700Z,98543.23
2018-07-06T21:22:43.868Z,98547.20
2018-07-06T21:25:13.004Z,98545.02
2018-07-06T21:27:42.108Z,98552.80
2018-07-06T21:30:11.360Z,98554.95
2018-07-06T21:32:40.410Z,98555.61
2018-07-06T21:35:09.539Z,98552.19
2018-07-06T21:37:38.688Z,98555.20
2018-07-06T21:40:07.833Z,98552.28
2018-07-06T21:42:36.964Z,98552.27
2018-07-06T21:45:06.267Z,98555.13
2018-07-06T21:47:35.403Z,98555.09
2018-07-06T21:50:04.541Z,98557.58
2018-07-06T21:52:33.855Z,98562.02
2018-07-06T21:55:02.766Z,98568.09
2018-07-06T21:57:31.909Z,98565.87
2018-07-06T22:00:01.045Z,98563.67
2018-07-06T22:02:29.955Z,98569.63
2018-07-06T22:04:59.097Z,98567.17
2018-07-06T22:07:28.224Z,98572.16
2018-07-06T22:09:57.238Z,98569.20
2018-07-06T22:12:26.370Z,98571.98
2018-07-06T22:14:55.517Z,98574.70
2018-07-06T22:17:24.423Z,98572.02
2018-07-06T22:19:53.570Z,98572.25
2018-07-06T22:22:22.701Z,98578.27
2018-07-06T22:24:51.623Z,98572.72
2018-07-06T22:27:20.752Z,98578.83
2018-07-06T22:29:49.888Z,98582.87
2018-07-06T22:32:19.048Z,98591.11
2018-07-06T22:34:48.186Z,98581.98
2018-07-06T22:37:17.327Z,98586.20
2018-07-06T22:39:46.458Z,98590.73
2018-07-06T22:42:15.597Z,98586.81
2018-07-06T22:44:44.728Z,98589.53
2018-07-06T22:47:13.856Z,98592.07
2018-07-06T22:49:42.987Z,98586.27
2018-07-06T22:52:12.123Z,98590.49
2018-07-06T22:54:41.258Z,98593.57
2018-07-06T22:57:10.469Z,98584.63
2018-07-06T22:59:39.637Z,98587.88
2018-07-06T23:02:08.961Z,98590.49
2018-07-06T23:04:38.088Z,98587.31
2018-07-06T23:07:07.235Z,98587.52
2018-07-06T23:09:36.356Z,98594.34
2018-07-06T23:12:05.496Z,98594.13
2018-07-06T23:14:34.640Z,98597.11
2018-07-06T23:17:03.792Z,98600.06
2018-07-06T23:19:32.922Z,98592.78
2018-07-06T23:22:02.071Z,98593.73
2018-07-06T23:24:31.227Z,98599.61
2018-07-06T23:27:00.381Z,98595.33
2018-07-06T23:29:29.504Z,98600.63
2018-07-06T23:31:58.650Z,98603.03
2018-07-06T23:34:27.777Z,98603.31
2018-07-06T23:36:56.923Z,98606.42
2018-07-06T23:39:26.051Z,98601.07
2018-07-06T23:41:55.173Z,98608.58
2018-07-06T23:44:24.079Z,98610.90
2018-07-06T23:46:53.216Z,98611.09
2018-07-06T23:49:22.361Z,98614.73
2018-07-06T23:51:51.504Z,98612.50
2018-07-06T23:54:20.620Z,98609.01
2018-07-06T23:56:49.752Z,98608.59
2018-07-06T23:59:18.883Z,98607.35
